createdAt,value
2018-05-06T00:01:04.924Z,99.90
2018-05-06T00:03:33.126Z,99.90
2018-05-06T00:06:01.305Z,99.90
2018-05-06T00:08:35.941Z,99.90
2018-05-06T00:11:04.119Z,99.90
2018-05-06T00:13:32.397Z,99.90
2018-05-06T00:16:00.587Z,99.90
2018-05-06T00:18:36.181Z,99.90
2018-05-06T00:21:04.456Z,99.90
2018-05-06T00:23:38.816Z,99.90
2018-05-06T00:26:08.525Z,99.90
2018-05-06T00:28:37.496Z,99.90
2018-05-06T00:31:05.800Z,99.90
2018-05-06T00:33:34.788Z,99.90
2018-05-06T00:36:03.750Z,99.90
2018-05-06T00:38:38.627Z,99.90
2018-05-06T00:41:06.835Z,99.90
2018-05-06T00:43:35.066Z,99.90
2018-05-06T00:46:04.101Z,99.90
2018-05-06T00:48:32.309Z,99.90
2018-05-06T00:54:01.345Z,99.90
2018-05-06T00:56:30.285Z,99.90
2018-05-06T00:58:58.498Z,99.90
2018-05-06T01:01:26.769Z,99.90
2018-05-06T01:03:54.946Z,99.90
2018-05-06T01:06:36.238Z,99.90
2018-05-06T01:09:05.319Z,99.90
2018-05-06T01:11:34.291Z,99.90
2018-05-06T01:14:02.582Z,99.90
2018-05-06T01:16:30.853Z,99.90
2018-05-06T01:21:59.617Z,99.90
2018-05-06T01:24:27.820Z,99.90
2018-05-06T01:29:56.850Z,99.90
2018-05-06T01:32:37.774Z,99.90
2018-05-06T01:35:05.989Z,99.90
2018-05-06T01:37:37.759Z,99.90
2018-05-06T01:40:34.905Z,99.90
2018-05-06T01:43:03.898Z,99.90
2018-05-06T01:45:32.841Z,99.90
2018-05-06T01:51:02.500Z,99.90
2018-05-06T01:53:30.681Z,99.90
2018-05-06T01:55:58.891Z,99.90
2018-05-06T01:58:37.689Z,99.90
2018-05-06T02:01:06.669Z,99.90
2018-05-06T02:03:34.889Z,99.90
2018-05-06T02:06:03.072Z,99.90
2018-05-06T02:08:31.294Z,99.90
2018-05-06T02:10:59.477Z,99.90
2018-05-06T02:13:27.717Z,99.90
2018-05-06T02:18:56.601Z,99.90
2018-05-06T02:21:24.846Z,99.90
2018-05-06T02:23:53.834Z,99.90
2018-05-06T02:26:22.020Z,99.90
2018-05-06T02:31:51.636Z,99.90
2018-05-06T02:34:19.853Z,99.90
2018-05-06T02:36:48.073Z,99.90
2018-05-06T02:39:16.347Z,99.90
2018-05-06T02:41:44.540Z,99.90
2018-05-06T02:47:05.445Z,99.90
2018-05-06T02:49:34.398Z,99.90
2018-05-06T02:55:02.934Z,99.90
2018-05-06T02:57:36.504Z,99.90
2018-05-06T03:00:04.716Z,99.90
2018-05-06T03:02:32.977Z,99.90
2018-05-06T03:05:01.167Z,99.90
2018-05-06T03:07:30.922Z,99.90
2018-05-06T03:09:59.142Z,99.90
2018-05-06T03:12:36.033Z,99.90
2018-05-06T03:15:05.024Z,99.90
2018-05-06T03:17:33.981Z,99.90
2018-05-06T03:20:02.215Z,99.90
2018-05-06T03:22:30.392Z,99.90
2018-05-06T03:27:59.052Z,99.90
2018-05-06T03:30:27.341Z,99.90
2018-05-06T03:32:55.525Z,99.90
2018-05-06T03:35:24.601Z,99.90
2018-05-06T03:37:54.298Z,99.90
2018-05-06T03:40:22.591Z,99.90
2018-05-06T03:42:51.669Z,99.90
2018-05-06T03:45:19.958Z,99.90
2018-05-06T03:47:48.919Z,99.90
2018-05-06T03:50:17.102Z,99.90
2018-05-06T03:52:45.394Z,99.90
2018-05-06T03:55:14.411Z,99.90
2018-05-06T03:58:01.208Z,99.90
2018-05-06T04:00:42.325Z,99.90
2018-05-06T04:03:36.631Z,99.90
2018-05-06T04:06:04.823Z,99.90
2018-05-06T04:08:36.536Z,99.90
2018-05-06T04:11:04.728Z,99.90
2018-05-06T04:13:33.004Z,99.90
2018-05-06T04:16:01.194Z,99.90
2018-05-06T04:18:29.382Z,99.90
2018-05-06T04:20:58.409Z,99.90
2018-05-06T04:23:36.982Z,99.90
2018-05-06T04:26:05.224Z,99.90
2018-05-06T04:28:33.456Z,99.90
2018-05-06T04:31:01.664Z,99.90
2018-05-06T04:33:29.914Z,99.90
2018-05-06T04:35:59.120Z,99.90
2018-05-06T04:38:27.436Z,99.90
2018-05-06T04:40:55.750Z,99.90
2018-05-06T04:43:24.031Z,99.90
2018-05-06T04:45:52.304Z,99.90
2018-05-06T04:48:22.099Z,99.90
2018-05-06T04:50:50.395Z,99.90
2018-05-06T04:53:19.444Z,99.90
2018-05-06T04:55:47.719Z,99.90
2018-05-06T04:58:35.410Z,99.90
2018-05-06T05:01:04.444Z,99.90
2018-05-06T05:03:36.557Z,99.90
2018-05-06T05:06:04.765Z,99.90
2018-05-06T05:08:33.004Z,99.90
2018-05-06T05:11:01.285Z,99.90
2018-05-06T05:13:30.475Z,99.90
2018-05-06T05:15:58.668Z,99.90
2018-05-06T05:18:36.387Z,99.90
2018-05-06T05:21:04.601Z,99.90
2018-05-06T05:23:32.900Z,99.90
2018-05-06T05:29:02.113Z,99.90
2018-05-06T05:31:36.968Z,99.90
2018-05-06T05:34:34.934Z,99.90
2018-05-06T05:40:34.898Z,99.90
2018-05-06T05:46:34.839Z,99.90
2018-05-06T05:52:04.207Z,99.90
2018-05-06T05:54:38.368Z,99.90
2018-05-06T05:57:36.230Z,99.90
2018-05-06T06:00:04.409Z,99.90
2018-05-06T06:02:39.087Z,99.90
2018-05-06T06:05:35.539Z,99.90
2018-05-06T06:11:15.377Z,99.90
2018-05-06T06:13:43.658Z,99.90
2018-05-06T06:16:13.402Z,99.90
2018-05-06T06:21:42.259Z,99.90
2018-05-06T06:24:36.442Z,99.90
2018-05-06T06:27:35.573Z,99.90
2018-05-06T06:30:04.623Z,99.90
2018-05-06T06:32:39.158Z,99.90
2018-05-06T06:35:34.811Z,99.90
2018-05-06T06:38:03.791Z,99.90
2018-05-06T06:40:38.609Z,99.90
2018-05-06T06:43:35.452Z,99.90
2018-05-06T06:46:03.729Z,99.90
2018-05-06T06:48:38.122Z,99.90
2018-05-06T06:51:35.306Z,99.90
2018-05-06T06:54:03.577Z,99.90
2018-05-06T06:56:37.764Z,99.90
2018-05-06T06:59:05.971Z,99.90
2018-05-06T07:01:37.825Z,99.90
2018-05-06T07:04:06.001Z,99.90
2018-05-06T07:06:37.616Z,99.90
2018-05-06T07:09:36.510Z,99.90
2018-05-06T07:12:04.727Z,99.90
2018-05-06T07:14:36.785Z,99.90
2018-05-06T07:17:06.490Z,99.90
2018-05-06T07:19:38.259Z,99.90
2018-05-06T07:26:37.160Z,99.90
2018-05-06T07:29:36.178Z,99.90
2018-05-06T07:32:04.454Z,99.90
2018-05-06T07:34:37.288Z,99.90
2018-05-06T07:37:36.020Z,99.90
2018-05-06T07:40:05.761Z,99.90
2018-05-06T07:42:37.754Z,99.90
2018-05-06T07:45:36.128Z,99.90
2018-05-06T07:48:04.494Z,99.90
2018-05-06T07:50:32.672Z,99.90
2018-05-06T07:56:01.874Z,99.90
2018-05-06T07:58:30.061Z,99.90
2018-05-06T08:00:58.299Z,99.90
2018-05-06T08:03:37.902Z,99.90
2018-05-06T08:09:35.468Z,99.90
2018-05-06T08:19:55.002Z,99.90
2018-05-06T08:27:35.586Z,99.90
2018-05-06T08:33:21.496Z,99.90
2018-05-06T08:35:49.685Z,99.90
2018-05-06T08:41:36.251Z,99.90
2018-05-06T08:47:35.507Z,99.90
2018-05-06T08:56:35.255Z,99.90
2018-05-06T09:02:25.494Z,99.90
2018-05-06T09:07:54.934Z,99.90
2018-05-06T09:13:36.392Z,99.90
2018-05-06T09:19:35.129Z,99.90
2018-05-06T09:29:39.679Z,99.90
2018-05-06T09:32:35.615Z,99.90
2018-05-06T09:35:03.817Z,99.90
2018-05-06T09:37:32.160Z,99.90
2018-05-06T09:40:00.411Z,99.90
2018-05-06T09:42:28.599Z,99.90
2018-05-06T09:47:57.275Z,99.90
2018-05-06T09:50:25.451Z,99.90
2018-05-06T09:52:53.658Z,99.90
2018-05-06T09:55:21.849Z,99.90
2018-05-06T09:57:50.096Z,99.90
2018-05-06T10:00:18.384Z,99.90
2018-05-06T10:02:46.561Z,99.90
2018-05-06T10:05:14.869Z,99.90
2018-05-06T10:07:43.055Z,99.80
2018-05-06T10:10:37.666Z,99.90
2018-05-06T10:13:06.730Z,99.00
2018-05-06T10:15:34.915Z,98.70
2018-05-06T10:18:03.874Z,98.10
2018-05-06T10:20:32.164Z,98.20
2018-05-06T10:23:01.119Z,98.30
2018-05-06T10:25:29.294Z,98.20
2018-05-06T10:27:57.477Z,99.80
2018-05-06T10:30:25.686Z,97.50
2018-05-06T10:32:55.376Z,97.90
2018-05-06T10:35:23.635Z,97.70
2018-05-06T10:37:51.811Z,97.50
2018-05-06T10:40:19.992Z,98.50
2018-05-06T10:42:48.242Z,96.20
2018-05-06T10:45:16.466Z,96.70
2018-05-06T10:47:45.145Z,96.70
2018-05-06T10:50:14.150Z,97.00
2018-05-06T10:52:43.138Z,98.50
2018-05-06T10:55:37.626Z,98.40
2018-05-06T10:58:06.610Z,98.50
2018-05-06T11:00:34.807Z,98.60
2018-05-06T11:03:03.981Z,98.50
2018-05-06T11:05:32.161Z,98.20
2018-05-06T11:08:00.338Z,97.70
2018-05-06T11:10:28.652Z,97.40
2018-05-06T11:12:56.755Z,97.50
2018-05-06T11:15:24.963Z,97.30
2018-05-06T11:17:53.795Z,97.50
2018-05-06T11:20:36.503Z,98.80
2018-05-06T11:23:04.692Z,98.80
2018-05-06T11:25:32.914Z,98.30
2018-05-06T11:28:01.156Z,98.00
2018-05-06T11:30:29.346Z,98.60
2018-05-06T11:32:57.641Z,98.10
2018-05-06T11:35:26.712Z,96.50
2018-05-06T11:37:54.918Z,96.70
2018-05-06T11:40:23.898Z,96.60
2018-05-06T11:42:52.166Z,96.60
2018-05-06T11:45:37.497Z,97.50
2018-05-06T11:48:35.777Z,96.70
2018-05-06T11:51:03.997Z,97.00
2018-05-06T11:53:32.238Z,97.30
2018-05-06T12:13:37.604Z,96.40
2018-05-06T12:19:35.850Z,96.60
2018-05-06T12:31:35.894Z,94.80
2018-05-06T12:37:36.134Z,96.20
2018-05-06T12:49:20.423Z,95.80
2018-05-06T12:51:48.604Z,95.70
2018-05-06T12:57:37.932Z,96.00
2018-05-06T13:00:35.950Z,95.80
2018-05-06T13:09:35.922Z,95.50
2018-05-06T13:15:04.041Z,95.30
2018-05-06T13:17:38.977Z,95.50
2018-05-06T13:20:37.014Z,95.80
2018-05-06T13:23:35.815Z,94.30
2018-05-06T13:29:35.366Z,94.70
2018-05-06T13:38:35.806Z,93.80
2018-05-06T13:44:35.606Z,93.30
2018-05-06T13:47:04.636Z,94.40
2018-05-06T13:49:32.814Z,94.40
2018-05-06T13:52:01.113Z,94.30
2018-05-06T13:54:29.423Z,93.60
2018-05-06T13:56:58.486Z,92.90
2018-05-06T13:59:26.783Z,92.90
2018-05-06T14:01:55.048Z,94.20
2018-05-06T14:04:36.458Z,94.00
2018-05-06T14:07:05.411Z,93.50
2018-05-06T14:09:33.653Z,93.50
2018-05-06T14:12:01.988Z,93.00
2018-05-06T14:14:37.683Z,92.30
2018-05-06T14:17:05.909Z,92.00
2018-05-06T14:19:38.374Z,93.10
2018-05-06T14:22:06.708Z,92.90
2018-05-06T14:24:34.890Z,93.80
2018-05-06T14:27:03.095Z,92.90
2018-05-06T14:29:31.361Z,92.90
2018-05-06T14:31:59.600Z,93.10
2018-05-06T14:34:27.825Z,92.70
2018-05-06T14:36:56.815Z,93.10
2018-05-06T14:39:24.999Z,93.10
2018-05-06T14:44:54.168Z,92.80
2018-05-06T14:47:43.096Z,93.80
2018-05-06T14:50:11.401Z,92.70
2018-05-06T14:52:39.623Z,93.10
2018-05-06T14:55:08.596Z,92.30
2018-05-06T14:57:36.881Z,92.30
2018-05-06T15:00:05.091Z,92.70
2018-05-06T15:02:33.281Z,91.60
2018-05-06T15:05:01.768Z,91.80
2018-05-06T15:07:30.051Z,91.80
2018-05-06T15:09:58.369Z,91.50
2018-05-06T15:12:26.645Z,92.20
2018-05-06T15:14:54.836Z,91.80
2018-05-06T15:17:23.840Z,91.40
2018-05-06T15:19:52.218Z,91.40
2018-05-06T15:22:20.581Z,90.90
2018-05-06T15:24:49.560Z,91.60
2018-05-06T15:27:17.765Z,91.60
2018-05-06T15:32:47.553Z,91.90
2018-05-06T15:35:15.785Z,91.80
2018-05-06T15:37:44.014Z,91.40
2018-05-06T15:40:12.283Z,91.10
2018-05-06T15:42:40.559Z,91.00
2018-05-06T15:45:08.763Z,90.80
2018-05-06T15:47:37.710Z,90.90
2018-05-06T15:50:05.938Z,91.00
2018-05-06T15:52:37.531Z,91.00
2018-05-06T15:55:05.725Z,91.00
2018-05-06T15:57:37.908Z,90.70
2018-05-06T16:00:07.282Z,90.40
2018-05-06T16:05:45.388Z,91.00
2018-05-06T16:08:13.621Z,90.70
2018-05-06T16:10:42.569Z,90.60
2018-05-06T16:13:10.746Z,90.70
2018-05-06T16:15:39.070Z,90.30
2018-05-06T16:18:08.039Z,90.00
2018-05-06T16:20:37.743Z,89.70
2018-05-06T16:23:05.957Z,88.40
2018-05-06T16:25:37.058Z,89.10
2018-05-06T16:28:05.278Z,88.90
2018-05-06T16:30:33.606Z,89.30
2018-05-06T16:33:01.883Z,89.10
2018-05-06T16:35:30.162Z,89.30
2018-05-06T16:37:58.427Z,88.80
2018-05-06T16:40:36.519Z,88.90
2018-05-06T16:43:04.814Z,88.90
2018-05-06T16:45:39.383Z,89.40
2018-05-06T16:48:07.624Z,89.40
2018-05-06T16:50:35.848Z,89.20
2018-05-06T16:53:04.038Z,89.50
2018-05-06T16:55:32.251Z,88.90
2018-05-06T16:58:01.238Z,89.00
2018-05-06T17:00:29.459Z,88.90
2018-05-06T17:02:57.631Z,90.00
2018-05-06T17:05:25.819Z,89.10
2018-05-06T17:07:54.142Z,88.40
2018-05-06T17:10:36.646Z,89.60
2018-05-06T17:13:04.860Z,89.50
2018-05-06T17:15:33.153Z,90.30
2018-05-06T17:18:01.359Z,89.70
2018-05-06T17:20:29.600Z,90.00
2018-05-06T17:22:57.778Z,89.70
2018-05-06T17:25:26.059Z,90.10
2018-05-06T17:27:54.399Z,90.00
2018-05-06T17:30:36.649Z,90.10
2018-05-06T17:33:04.874Z,90.20
2018-05-06T17:35:39.571Z,90.50
2018-05-06T17:38:07.946Z,90.50
2018-05-06T17:40:37.271Z,90.50
2018-05-06T17:43:06.222Z,90.40
2018-05-06T17:45:37.338Z,90.40
2018-05-06T17:48:05.622Z,90.90
2018-05-06T17:50:37.051Z,90.50
2018-05-06T17:53:05.324Z,91.00
2018-05-06T17:55:33.662Z,90.70
2018-05-06T18:04:03.914Z,91.60
2018-05-06T18:06:32.110Z,91.30
2018-05-06T18:09:01.377Z,91.40
2018-05-06T18:11:30.065Z,91.30
2018-05-06T18:13:58.871Z,91.70
2018-05-06T18:16:37.386Z,91.70
2018-05-06T18:19:05.623Z,91.70
2018-05-06T18:24:28.005Z,92.20
2018-05-06T18:26:56.255Z,92.20
2018-05-06T18:29:37.848Z,92.20
2018-05-06T18:32:06.060Z,92.20
2018-05-06T18:34:35.062Z,92.50
2018-05-06T18:37:04.078Z,92.60
2018-05-06T18:39:32.858Z,92.60
2018-05-06T18:42:01.826Z,92.60
2018-05-06T18:44:36.858Z,92.60
2018-05-06T18:47:05.999Z,92.70
2018-05-06T18:49:37.702Z,92.70
2018-05-06T18:52:05.995Z,93.00
2018-05-06T18:54:34.974Z,93.30
2018-05-06T18:57:03.316Z,93.20
2018-05-06T18:59:31.533Z,93.20
2018-05-06T19:05:01.930Z,93.50
2018-05-06T19:07:30.173Z,93.40
2018-05-06T19:09:59.203Z,93.80
2018-05-06T19:12:27.737Z,93.80
2018-05-06T19:14:56.020Z,93.90
2018-05-06T19:17:38.471Z,93.90
2018-05-06T19:20:06.691Z,93.90
2018-05-06T19:22:35.692Z,94.30
2018-05-06T19:25:04.679Z,94.10
2018-05-06T19:27:40.200Z,94.30
2018-05-06T19:30:08.451Z,94.30
2018-05-06T19:32:36.718Z,94.20
2018-05-06T19:35:04.855Z,94.20
2018-05-06T19:37:33.955Z,94.50
2018-05-06T19:40:03.138Z,94.50
2018-05-06T19:42:32.150Z,94.50
2018-05-06T19:48:00.617Z,94.70
2018-05-06T19:50:37.094Z,94.80
2018-05-06T19:53:05.384Z,94.90
2018-05-06T19:55:38.337Z,95.00
2018-05-06T19:58:06.584Z,95.00
2018-05-06T20:00:34.765Z,95.20
2018-05-06T20:03:04.033Z,95.30
2018-05-06T20:05:32.281Z,95.30
2018-05-06T20:08:00.481Z,95.30
2018-05-06T20:10:29.467Z,95.70
2018-05-06T20:15:59.705Z,95.60
2018-05-06T20:18:28.771Z,95.60
2018-05-06T20:20:57.787Z,95.70
2018-05-06T20:26:27.559Z,95.60
2018-05-06T20:28:55.786Z,95.90
2018-05-06T20:31:24.855Z,96.00
2018-05-06T20:33:53.033Z,96.00
2018-05-06T20:36:36.324Z,95.90
2018-05-06T20:39:04.668Z,95.90
2018-05-06T20:41:37.497Z,96.40
2018-05-06T20:44:05.772Z,96.40
2018-05-06T20:46:33.995Z,96.50
2018-05-06T20:49:02.976Z,96.60
2018-05-06T20:51:31.981Z,96.60
2018-05-06T20:54:02.415Z,96.60
2018-05-06T20:59:51.019Z,96.80
2018-05-06T21:02:24.449Z,96.90
2018-05-06T21:04:52.647Z,97.00
2018-05-06T21:07:21.590Z,97.10
2018-05-06T21:09:50.618Z,97.10
2018-05-06T21:12:18.799Z,97.30
2018-05-06T21:14:47.786Z,98.00
2018-05-06T21:17:16.013Z,97.80
2018-05-06T21:19:44.228Z,98.20
2018-05-06T21:22:12.421Z,98.30
2018-05-06T21:24:41.490Z,98.40
2018-05-06T21:27:09.838Z,98.40
2018-05-06T21:29:38.061Z,98.30
2018-05-06T21:32:07.079Z,98.40
2018-05-06T21:34:35.250Z,98.30
2018-05-06T21:40:04.235Z,98.50
2018-05-06T21:42:32.511Z,98.50
2018-05-06T21:45:00.892Z,98.50
2018-05-06T21:47:29.090Z,98.50
2018-05-06T21:49:58.780Z,98.80
2018-05-06T21:52:27.735Z,98.60
2018-05-06T21:54:57.054Z,99.00
2018-05-06T21:57:25.237Z,98.90
2018-05-06T22:02:54.127Z,99.10
2018-05-06T22:05:22.407Z,99.10
2018-05-06T22:07:50.750Z,99.00
2018-05-06T22:10:38.690Z,99.60
2018-05-06T22:13:06.967Z,99.90
2018-05-06T22:15:35.187Z,99.90
2018-05-06T22:18:03.541Z,99.90
2018-05-06T22:20:31.738Z,99.90
2018-05-06T22:22:59.923Z,99.90
2018-05-06T22:25:28.899Z,99.90
2018-05-06T22:27:57.090Z,99.90
2018-05-06T22:30:26.058Z,99.90
2018-05-06T22:32:54.326Z,99.90
2018-05-06T22:35:22.502Z,99.90
2018-05-06T22:37:52.212Z,99.90
2018-05-06T22:40:22.021Z,99.90
2018-05-06T22:45:50.634Z,99.90
2018-05-06T22:48:18.869Z,99.90
2018-05-06T22:50:47.059Z,99.90
2018-05-06T22:53:15.344Z,99.90
2018-05-06T22:58:43.762Z,99.90
2018-05-06T23:01:11.944Z,99.90
2018-05-06T23:03:40.890Z,99.90
2018-05-06T23:06:35.566Z,99.90
2018-05-06T23:09:03.748Z,99.90
2018-05-06T23:11:38.105Z,99.90
2018-05-06T23:14:06.277Z,99.90
2018-05-06T23:16:37.836Z,99.90
2018-05-06T23:19:06.029Z,99.90
2018-05-06T23:21:35.005Z,99.90
2018-05-06T23:24:03.994Z,99.90
2018-05-06T23:26:32.172Z,99.90
2018-05-06T23:29:01.131Z,99.90
2018-05-06T23:31:29.350Z,99.90
2018-05-06T23:33:58.288Z,99.90
2018-05-06T23:36:27.309Z,99.90
2018-05-06T23:38:55.529Z,99.90
2018-05-06T23:41:23.703Z,99.90
2018-05-06T23:46:53.375Z,99.90
2018-05-06T23:49:36.913Z,99.90
2018-05-06T23:52:05.198Z,99.90
2018-05-06T23:54:33.470Z,99.90
